LIRP/PSA METAR and TAF weather

Enter ICAO airport designator
Station Type Date Time Source
LIRP METAR 2020/10/29 17:15 UTC NOAA

LIRP 291715Z 08002KT 9999 BKN030 16/15 Q1020 NOSIG


Station Type Date Time Source
LIRP Decoded METAR 2020/10/29 17:15 UTC NOAA

Pisa / S. Giusto, Italy (LIRP) 43-41N 010-23E 6M
Oct 29, 2020 - 01:15 PM EDT / 2020.10.29 1715 UTC
Wind: from the E (080 degrees) at 2 MPH (2 KT):0
Visibility: greater than 7 mile(s):0
Sky conditions: mostly cloudy
Temperature: 60 F (16 C)
Dew Point: 59 F (15 C)
Relative Humidity: 93%
Pressure (altimeter): 30.12 in. Hg (1020 hPa)
ob: LIRP 291715Z 08002KT 9999 BKN030 16/15 Q1020 NOSIG
cycle: 17

Station Type Date Time Source
LIRP TAF 2020/10/29 18:21 UTC NOAA

TAF LIRP 291700Z 2918/3018 13005KT 9999 SCT020
TEMPO 2921/3007 3000 BR PROB40
TEMPO 2921/3007 0500 FG BKN002

Example: see airport list